createdAt,value
2023-01-15T00:01:03.285Z,0.00
2023-01-15T00:16:03.503Z,0.00
2023-01-15T00:31:03.713Z,0.00
2023-01-15T00:46:04.269Z,0.00
2023-01-15T01:01:05.683Z,0.00
2023-01-15T01:16:05.713Z,0.00
2023-01-15T01:31:05.957Z,0.00
2023-01-15T01:46:06.804Z,0.00
2023-01-15T02:01:07.776Z,0.00
2023-01-15T02:16:08.183Z,0.00
2023-01-15T02:31:08.904Z,0.00
2023-01-15T02:46:09.539Z,0.00
2023-01-15T03:01:10.330Z,0.00
2023-01-15T03:16:10.544Z,0.00
2023-01-15T03:31:11.229Z,0.00
2023-01-15T03:46:11.150Z,0.00
2023-01-15T04:01:11.737Z,0.00
2023-01-15T04:16:12.880Z,0.00
2023-01-15T04:31:13.741Z,0.00
2023-01-15T04:46:13.976Z,0.00
2023-01-15T05:01:14.548Z,0.00
2023-01-15T05:16:15.643Z,0.00
2023-01-15T05:31:16.728Z,0.00
2023-01-15T05:46:17.480Z,0.00
2023-01-15T06:01:17.638Z,0.00
2023-01-15T06:16:17.890Z,0.00
2023-01-15T06:31:18.496Z,0.00
2023-01-15T06:46:19.261Z,0.00
2023-01-15T07:01:19.316Z,0.00
2023-01-15T07:16:19.603Z,0.00
2023-01-15T07:31:19.755Z,11.25
2023-01-15T07:46:19.965Z,11.25
2023-01-15T08:01:20.329Z,22.50
2023-01-15T08:16:20.367Z,39.38
2023-01-15T08:31:20.720Z,61.88
2023-01-15T08:46:21.134Z,84.38
2023-01-15T09:01:21.037Z,146.25
2023-01-15T09:16:21.236Z,106.88
2023-01-15T09:31:21.511Z,157.50
2023-01-15T09:46:21.808Z,151.88
2023-01-15T10:01:22.087Z,264.38
2023-01-15T10:16:22.115Z,174.38
2023-01-15T10:31:22.500Z,185.62
2023-01-15T10:46:22.951Z,219.38
2023-01-15T11:01:24.234Z,191.25
2023-01-15T11:16:24.241Z,196.88
2023-01-15T11:31:24.435Z,151.88
2023-01-15T11:46:24.551Z,174.38
2023-01-15T12:01:24.803Z,146.25
2023-01-15T12:16:24.849Z,225.00
2023-01-15T12:31:25.083Z,320.62
2023-01-15T12:46:25.332Z,247.50
2023-01-15T13:01:25.474Z,292.50
2023-01-15T13:16:25.732Z,241.88
2023-01-15T13:31:26.325Z,275.62
2023-01-15T13:46:27.411Z,191.25
2023-01-15T14:01:28.202Z,236.25
2023-01-15T14:16:28.405Z,73.12
2023-01-15T14:31:28.453Z,129.38
2023-01-15T14:46:28.641Z,33.75
2023-01-15T15:01:28.907Z,61.88
2023-01-15T15:16:29.557Z,22.50
2023-01-15T15:31:30.774Z,5.62
2023-01-15T15:46:31.600Z,0.00
2023-01-15T16:01:32.045Z,0.00
2023-01-15T16:16:32.625Z,0.00
2023-01-15T16:31:32.858Z,0.00
2023-01-15T16:46:33.449Z,0.00
2023-01-15T17:01:33.524Z,0.00
2023-01-15T17:16:33.684Z,0.00
2023-01-15T17:31:34.460Z,0.00
2023-01-15T17:46:35.137Z,0.00
2023-01-15T18:01:35.511Z,0.00
2023-01-15T18:16:35.456Z,0.00
2023-01-15T18:31:36.126Z,0.00
2023-01-15T18:46:54.610Z,0.00
2023-01-15T19:01:54.928Z,0.00
2023-01-15T19:16:55.035Z,0.00
2023-01-15T19:31:55.185Z,0.00
2023-01-15T19:46:55.773Z,0.00
2023-01-15T20:01:56.583Z,0.00
2023-01-15T20:16:56.912Z,0.00
2023-01-15T20:31:57.116Z,0.00
2023-01-15T20:46:57.288Z,0.00
2023-01-15T21:01:57.964Z,0.00
2023-01-15T21:16:59.161Z,0.00
2023-01-15T21:32:00.935Z,0.00
2023-01-15T21:47:07.838Z,0.00
2023-01-15T22:02:08.808Z,0.00
2023-01-15T22:17:10.203Z,0.00
2023-01-15T22:32:11.417Z,0.00
2023-01-15T22:47:12.071Z,0.00
2023-01-15T23:02:12.893Z,0.00
2023-01-15T23:17:13.547Z,0.00
2023-01-15T23:32:14.194Z,0.00
2023-01-15T23:47:15.300Z,0.00
